sensor_id;sensor_type;location;lat;lon;timestamp;temperature;humidity
8988;DHT22;4529;51.360;12.474;2023-02-28T01:37:04;2.30;99.90
8988;DHT22;4529;51.360;12.474;2023-02-28T01:42:08;2.20;99.90
8988;DHT22;4529;51.360;12.474;2023-02-28T01:47:11;2.40;99.90
8988;DHT22;4529;51.360;12.474;2023-02-28T01:52:14;2.40;99.90
8988;DHT22;4529;51.360;12.474;2023-02-28T01:57:19;2.50;99.90
8988;DHT22;4529;51.360;12.474;2023-02-28T02:02:22;2.50;99.90
8988;DHT22;4529;51.360;12.474;2023-02-28T02:07:25;2.50;99.90
8988;DHT22;4529;51.360;12.474;2023-02-28T02:17:54;2.60;99.90
8988;DHT22;4529;51.360;12.474;2023-02-28T02:28:46;2.60;99.90
8988;DHT22;4529;51.360;12.474;2023-02-28T02:39:31;2.50;99.90
8988;DHT22;4529;51.360;12.474;2023-02-28T02:44:47;2.40;99.90
8988;DHT22;4529;51.360;12.474;2023-02-28T02:49:51;2.40;99.90
8988;DHT22;4529;51.360;12.474;2023-02-28T02:54:54;2.20;99.90
8988;DHT22;4529;51.360;12.474;2023-02-28T02:59:58;2.10;99.90
8988;DHT22;4529;51.360;12.474;2023-02-28T03:05:03;2.00;99.90
8988;DHT22;4529;51.360;12.474;2023-02-28T03:10:25;2.00;99.90
8988;DHT22;4529;51.360;12.474;2023-02-28T03:15:23;1.90;99.90
8988;DHT22;4529;51.360;12.474;2023-02-28T03:26:07;2.00;99.90
8988;DHT22;4529;51.360;12.474;2023-02-28T03:31:32;2.00;99.90
8988;DHT22;4529;51.360;12.474;2023-02-28T03:36:38;2.00;99.90
8988;DHT22;4529;51.360;12.474;2023-02-28T03:42:20;2.00;99.90
8988;DHT22;4529;51.360;12.474;2023-02-28T03:47:19;2.00;99.90
8988;DHT22;4529;51.360;12.474;2023-02-28T03:52:22;1.90;99.90
8988;DHT22;4529;51.360;12.474;2023-02-28T03:57:32;2.00;99.90
8988;DHT22;4529;51.360;12.474;2023-02-28T04:02:32;2.00;99.90
8988;DHT22;4529;51.360;12.474;2023-02-28T04:07:37;2.00;99.90
8988;DHT22;4529;51.360;12.474;2023-02-28T04:12:41;1.80;99.90
8988;DHT22;4529;51.360;12.474;2023-02-28T04:17:44;1.70;99.90
8988;DHT22;4529;51.360;12.474;2023-02-28T04:22:48;1.70;99.90
8988;DHT22;4529;51.360;12.474;2023-02-28T04:27:51;1.60;99.90
8988;DHT22;4529;51.360;12.474;2023-02-28T04:32:54;1.60;99.90
8988;DHT22;4529;51.360;12.474;2023-02-28T04:37:59;1.50;99.90
8988;DHT22;4529;51.360;12.474;2023-02-28T04:43:03;1.40;99.90
8988;DHT22;4529;51.360;12.474;2023-02-28T04:48:06;1.40;99.90
8988;DHT22;4529;51.360;12.474;2023-02-28T04:53:10;1.40;99.90
8988;DHT22;4529;51.360;12.474;2023-02-28T04:58:14;1.40;99.90
8988;DHT22;4529;51.360;12.474;2023-02-28T05:03:18;1.40;99.90
8988;DHT22;4529;51.360;12.474;2023-02-28T05:08:21;1.40;99.90
8988;DHT22;4529;51.360;12.474;2023-02-28T05:13:40;1.40;99.90
8988;DHT22;4529;51.360;12.474;2023-02-28T05:18:43;1.40;99.90
8988;DHT22;4529;51.360;12.474;2023-02-28T05:23:47;1.30;99.90
8988;DHT22;4529;51.360;12.474;2023-02-28T05:28:51;1.30;99.90
8988;DHT22;4529;51.360;12.474;2023-02-28T05:33:54;1.30;99.90
8988;DHT22;4529;51.360;12.474;2023-02-28T05:38:58;1.30;99.90
8988;DHT22;4529;51.360;12.474;2023-02-28T05:44:05;1.20;99.90
8988;DHT22;4529;51.360;12.474;2023-02-28T05:49:08;1.20;99.90
8988;DHT22;4529;51.360;12.474;2023-02-28T05:54:12;1.50;99.90
8988;DHT22;4529;51.360;12.474;2023-02-28T05:59:16;1.60;99.90
8988;DHT22;4529;51.360;12.474;2023-02-28T06:04:20;1.60;99.90
8988;DHT22;4529;51.360;12.474;2023-02-28T06:09:24;1.60;99.90
8988;DHT22;4529;51.360;12.474;2023-02-28T06:14:31;1.60;99.90
8988;DHT22;4529;51.360;12.474;2023-02-28T06:19:34;1.60;99.90
8988;DHT22;4529;51.360;12.474;2023-02-28T06:24:37;1.60;99.90
8988;DHT22;4529;51.360;12.474;2023-02-28T06:29:41;1.70;99.90
8988;DHT22;4529;51.360;12.474;2023-02-28T06:34:45;1.70;99.90
8988;DHT22;4529;51.360;12.474;2023-02-28T06:39:48;1.60;99.90
8988;DHT22;4529;51.360;12.474;2023-02-28T06:44:52;1.70;99.90
8988;DHT22;4529;51.360;12.474;2023-02-28T06:49:55;1.70;99.90
8988;DHT22;4529;51.360;12.474;2023-02-28T06:54:59;1.80;99.90
8988;DHT22;4529;51.360;12.474;2023-02-28T07:00:04;1.80;99.90
8988;DHT22;4529;51.360;12.474;2023-02-28T07:05:06;1.90;99.90
8988;DHT22;4529;51.360;12.474;2023-02-28T07:10:10;1.80;99.90
8988;DHT22;4529;51.360;12.474;2023-02-28T07:15:14;1.40;99.90
8988;DHT22;4529;51.360;12.474;2023-02-28T07:20:18;1.30;99.90
8988;DHT22;4529;51.360;12.474;2023-02-28T07:25:25;1.50;99.90
8988;DHT22;4529;51.360;12.474;2023-02-28T07:30:29;1.50;99.90
8988;DHT22;4529;51.360;12.474;2023-02-28T07:35:33;1.50;99.90
8988;DHT22;4529;51.360;12.474;2023-02-28T07:40:37;1.60;99.90
8988;DHT22;4529;51.360;12.474;2023-02-28T07:45:46;1.90;99.90
8988;DHT22;4529;51.360;12.474;2023-02-28T07:50:56;1.90;99.90
8988;DHT22;4529;51.360;12.474;2023-02-28T07:56:00;2.20;99.90
8988;DHT22;4529;51.360;12.474;2023-02-28T08:01:06;2.50;99.90
8988;DHT22;4529;51.360;12.474;2023-02-28T08:06:15;2.70;99.90
8988;DHT22;4529;51.360;12.474;2023-02-28T08:11:12;3.00;99.90
8988;DHT22;4529;51.360;12.474;2023-02-28T08:16:21;3.20;99.90
8988;DHT22;4529;51.360;12.474;2023-02-28T08:21:25;3.40;99.90
8988;DHT22;4529;51.360;12.474;2023-02-28T08:26:28;3.50;99.90
8988;DHT22;4529;51.360;12.474;2023-02-28T08:31:31;3.60;99.90
8988;DHT22;4529;51.360;12.474;2023-02-28T08:36:35;3.60;99.90
8988;DHT22;4529;51.360;12.474;2023-02-28T08:41:38;3.60;99.90
8988;DHT22;4529;51.360;12.474;2023-02-28T08:46:42;3.60;99.90
8988;DHT22;4529;51.360;12.474;2023-02-28T08:51:46;3.70;99.90
8988;DHT22;4529;51.360;12.474;2023-02-28T08:56:50;3.80;99.90
8988;DHT22;4529;51.360;12.474;2023-02-28T09:01:53;3.70;99.90
8988;DHT22;4529;51.360;12.474;2023-02-28T09:06:57;3.80;99.90
8988;DHT22;4529;51.360;12.474;2023-02-28T09:12:00;3.90;99.90
8988;DHT22;4529;51.360;12.474;2023-02-28T09:17:04;4.00;99.90
8988;DHT22;4529;51.360;12.474;2023-02-28T09:22:08;4.10;99.90
8988;DHT22;4529;51.360;12.474;2023-02-28T09:27:11;4.20;99.90
8988;DHT22;4529;51.360;12.474;2023-02-28T09:32:14;4.30;99.90
8988;DHT22;4529;51.360;12.474;2023-02-28T09:37:18;4.40;99.90
8988;DHT22;4529;51.360;12.474;2023-02-28T09:42:25;4.40;99.90
8988;DHT22;4529;51.360;12.474;2023-02-28T09:52:35;4.50;99.90
8988;DHT22;4529;51.360;12.474;2023-02-28T09:57:39;4.50;99.90
8988;DHT22;4529;51.360;12.474;2023-02-28T10:02:53;4.50;99.90
8988;DHT22;4529;51.360;12.474;2023-02-28T10:08:00;4.70;99.90
8988;DHT22;4529;51.360;12.474;2023-02-28T10:13:02;4.70;99.90
8988;DHT22;4529;51.360;12.474;2023-02-28T10:18:06;4.70;99.90
8988;DHT22;4529;51.360;12.474;2023-02-28T10:23:14;4.70;99.90
8988;DHT22;4529;51.360;12.474;2023-02-28T10:28:16;4.60;99.90
8988;DHT22;4529;51.360;12.474;2023-02-28T10:33:32;4.70;99.90
8988;DHT22;4529;51.360;12.474;2023-02-28T10:38:35;4.70;99.90
8988;DHT22;4529;51.360;12.474;2023-02-28T10:43:39;5.00;99.90
8988;DHT22;4529;51.360;12.474;2023-02-28T10:48:45;4.90;99.90
8988;DHT22;4529;51.360;12.474;2023-02-28T10:53:51;5.10;99.90
8988;DHT22;4529;51.360;12.474;2023-02-28T10:59:23;5.10;99.90
8988;DHT22;4529;51.360;12.474;2023-02-28T11:04:20;5.20;99.90
8988;DHT22;4529;51.360;12.474;2023-02-28T11:09:34;5.20;99.90
8988;DHT22;4529;51.360;12.474;2023-02-28T11:14:40;5.30;99.90
8988;DHT22;4529;51.360;12.474;2023-02-28T11:19:46;5.30;99.90
8988;DHT22;4529;51.360;12.474;2023-02-28T11:24:50;5.20;99.90
8988;DHT22;4529;51.360;12.474;2023-02-28T11:29:52;5.20;99.90
8988;DHT22;4529;51.360;12.474;2023-02-28T11:40:22;5.00;99.90
8988;DHT22;4529;51.360;12.474;2023-02-28T11:45:31;4.90;99.90
8988;DHT22;4529;51.360;12.474;2023-02-28T11:51:09;4.90;99.90
8988;DHT22;4529;51.360;12.474;2023-02-28T12:07:26;5.30;99.90
8988;DHT22;4529;51.360;12.474;2023-02-28T12:12:50;5.30;99.90
8988;DHT22;4529;51.360;12.474;2023-02-28T12:18:11;5.40;99.90
8988;DHT22;4529;51.360;12.474;2023-02-28T12:29:08;5.50;99.90
8988;DHT22;4529;51.360;12.474;2023-02-28T12:34:10;5.50;99.90
8988;DHT22;4529;51.360;12.474;2023-02-28T12:39:30;5.50;99.90
8988;DHT22;4529;51.360;12.474;2023-02-28T12:44:47;5.60;99.90
8988;DHT22;4529;51.360;12.474;2023-02-28T12:50:07;5.70;99.90
8988;DHT22;4529;51.360;12.474;2023-02-28T13:01:12;5.70;99.90
8988;DHT22;4529;51.360;12.474;2023-02-28T13:06:34;5.80;99.90
8988;DHT22;4529;51.360;12.474;2023-02-28T13:11:33;5.70;99.90
8988;DHT22;4529;51.360;12.474;2023-02-28T13:16:56;5.70;99.90
8988;DHT22;4529;51.360;12.474;2023-02-28T13:21:59;5.70;99.90
8988;DHT22;4529;51.360;12.474;2023-02-28T13:42:48;5.70;99.90
8988;DHT22;4529;51.360;12.474;2023-02-28T13:47:55;5.80;99.90
8988;DHT22;4529;51.360;12.474;2023-02-28T13:58:50;5.80;99.90
8988;DHT22;4529;51.360;12.474;2023-02-28T14:04:09;5.80;99.90
8988;DHT22;4529;51.360;12.474;2023-02-28T14:09:27;5.80;99.90
8988;DHT22;4529;51.360;12.474;2023-02-28T14:19:39;5.80;99.90
8988;DHT22;4529;51.360;12.474;2023-02-28T14:25:15;5.90;99.90
8988;DHT22;4529;51.360;12.474;2023-02-28T14:30:50;5.90;99.90
8988;DHT22;4529;51.360;12.474;2023-02-28T14:36:20;5.90;99.90
8988;DHT22;4529;51.360;12.474;2023-02-28T14:41:30;5.90;99.90
8988;DHT22;4529;51.360;12.474;2023-02-28T14:46:38;5.90;99.90
8988;DHT22;4529;51.360;12.474;2023-02-28T14:51:40;5.80;99.90
8988;DHT22;4529;51.360;12.474;2023-02-28T14:56:44;5.90;99.90
8988;DHT22;4529;51.360;12.474;2023-02-28T15:01:48;5.80;99.90
8988;DHT22;4529;51.360;12.474;2023-02-28T15:07:10;5.90;99.90
8988;DHT22;4529;51.360;12.474;2023-02-28T15:12:15;5.80;99.90
8988;DHT22;4529;51.360;12.474;2023-02-28T15:17:21;5.80;99.90
8988;DHT22;4529;51.360;12.474;2023-02-28T15:22:28;5.80;99.90
8988;DHT22;4529;51.360;12.474;2023-02-28T15:27:31;5.80;99.90
8988;DHT22;4529;51.360;12.474;2023-02-28T15:32:37;5.70;99.90
8988;DHT22;4529;51.360;12.474;2023-02-28T15:37:44;5.70;99.90
8988;DHT22;4529;51.360;12.474;2023-02-28T15:42:57;5.70;99.90
8988;DHT22;4529;51.360;12.474;2023-02-28T15:47:46;5.70;99.90
8988;DHT22;4529;51.360;12.474;2023-02-28T15:52:50;5.60;99.90
8988;DHT22;4529;51.360;12.474;2023-02-28T15:57:55;5.60;99.90
8988;DHT22;4529;51.360;12.474;2023-02-28T16:02:58;5.60;99.90
8988;DHT22;4529;51.360;12.474;2023-02-28T16:08:08;5.60;99.90
8988;DHT22;4529;51.360;12.474;2023-02-28T16:13:04;5.40;99.90
8988;DHT22;4529;51.360;12.474;2023-02-28T16:18:09;5.20;99.90
8988;DHT22;4529;51.360;12.474;2023-02-28T16:23:12;5.00;99.90
8988;DHT22;4529;51.360;12.474;2023-02-28T16:28:24;4.80;99.90
8988;DHT22;4529;51.360;12.474;2023-02-28T16:33:25;4.70;99.90
8988;DHT22;4529;51.360;12.474;2023-02-28T16:38:31;4.60;99.90
8988;DHT22;4529;51.360;12.474;2023-02-28T16:43:35;4.50;99.90
8988;DHT22;4529;51.360;12.474;2023-02-28T16:48:39;4.40;99.90
8988;DHT22;4529;51.360;12.474;2023-02-28T16:53:42;4.40;99.90
8988;DHT22;4529;51.360;12.474;2023-02-28T16:58:47;4.40;99.90
8988;DHT22;4529;51.360;12.474;2023-02-28T17:03:50;4.40;99.90
8988;DHT22;4529;51.360;12.474;2023-02-28T17:08:54;4.40;99.90
8988;DHT22;4529;51.360;12.474;2023-02-28T17:13:58;4.20;99.90
8988;DHT22;4529;51.360;12.474;2023-02-28T17:19:03;4.20;99.90
8988;DHT22;4529;51.360;12.474;2023-02-28T17:24:05;4.00;99.90
8988;DHT22;4529;51.360;12.474;2023-02-28T17:29:18;3.90;99.90
8988;DHT22;4529;51.360;12.474;2023-02-28T17:34:20;3.70;99.90
8988;DHT22;4529;51.360;12.474;2023-02-28T17:39:24;3.50;99.90
8988;DHT22;4529;51.360;12.474;2023-02-28T17:44:27;3.40;99.90
8988;DHT22;4529;51.360;12.474;2023-02-28T17:49:31;3.30;99.90
8988;DHT22;4529;51.360;12.474;2023-02-28T17:54:35;3.20;99.90
8988;DHT22;4529;51.360;12.474;2023-02-28T17:59:38;3.10;99.90
8988;DHT22;4529;51.360;12.474;2023-02-28T18:04:41;3.00;99.90
8988;DHT22;4529;51.360;12.474;2023-02-28T18:09:51;2.80;99.90
8988;DHT22;4529;51.360;12.474;2023-02-28T18:14:54;2.80;99.90
8988;DHT22;4529;51.360;12.474;2023-02-28T18:19:58;2.70;99.90
8988;DHT22;4529;51.360;12.474;2023-02-28T18:25:05;2.60;99.90
8988;DHT22;4529;51.360;12.474;2023-02-28T18:30:06;2.60;99.90
8988;DHT22;4529;51.360;12.474;2023-02-28T18:35:09;2.60;99.90
8988;DHT22;4529;51.360;12.474;2023-02-28T18:40:18;2.60;99.90
8988;DHT22;4529;51.360;12.474;2023-02-28T18:45:22;2.40;99.90
8988;DHT22;4529;51.360;12.474;2023-02-28T18:50:25;2.40;99.90
8988;DHT22;4529;51.360;12.474;2023-02-28T18:55:30;2.30;99.90
8988;DHT22;4529;51.360;12.474;2023-02-28T19:00:33;1.80;99.90
8988;DHT22;4529;51.360;12.474;2023-02-28T19:05:37;1.60;99.90
8988;DHT22;4529;51.360;12.474;2023-02-28T19:10:41;1.50;99.90
8988;DHT22;4529;51.360;12.474;2023-02-28T19:15:45;1.40;99.90
8988;DHT22;4529;51.360;12.474;2023-02-28T19:20:48;1.30;99.90
8988;DHT22;4529;51.360;12.474;2023-02-28T19:25:51;1.20;99.90
8988;DHT22;4529;51.360;12.474;2023-02-28T19:30:55;1.10;99.90
8988;DHT22;4529;51.360;12.474;2023-02-28T19:35:59;1.00;99.90
8988;DHT22;4529;51.360;12.474;2023-02-28T19:41:04;0.90;99.90
8988;DHT22;4529;51.360;12.474;2023-02-28T19:46:08;0.80;99.90
8988;DHT22;4529;51.360;12.474;2023-02-28T19:51:12;0.80;99.90
8988;DHT22;4529;51.360;12.474;2023-02-28T19:56:15;0.80;99.90
8988;DHT22;4529;51.360;12.474;2023-02-28T20:01:20;0.70;99.90
8988;DHT22;4529;51.360;12.474;2023-02-28T20:06:24;0.70;99.90
8988;DHT22;4529;51.360;12.474;2023-02-28T20:11:28;0.60;99.90
8988;DHT22;4529;51.360;12.474;2023-02-28T20:16:32;0.50;99.90
8988;DHT22;4529;51.360;12.474;2023-02-28T20:21:35;0.50;99.90
8988;DHT22;4529;51.360;12.474;2023-02-28T20:26:39;0.50;99.90
8988;DHT22;4529;51.360;12.474;2023-02-28T20:31:42;0.40;99.90
8988;DHT22;4529;51.360;12.474;2023-02-28T20:36:46;0.40;99.90
8988;DHT22;4529;51.360;12.474;2023-02-28T20:41:49;0.40;99.90
8988;DHT22;4529;51.360;12.474;2023-02-28T20:46:53;0.40;99.90
8988;DHT22;4529;51.360;12.474;2023-02-28T20:51:57;0.30;99.90
8988;DHT22;4529;51.360;12.474;2023-02-28T20:57:02;0.20;99.90
8988;DHT22;4529;51.360;12.474;2023-02-28T21:02:06;0.10;99.90
8988;DHT22;4529;51.360;12.474;2023-02-28T21:07:09;0.10;99.90
8988;DHT22;4529;51.360;12.474;2023-02-28T21:12:13;0.10;99.90
8988;DHT22;4529;51.360;12.474;2023-02-28T21:17:17;0.00;99.90
8988;DHT22;4529;51.360;12.474;2023-02-28T21:22:21;0.00;99.90
8988;DHT22;4529;51.360;12.474;2023-02-28T21:27:25;-0.10;99.90
8988;DHT22;4529;51.360;12.474;2023-02-28T21:32:29;-0.20;99.90
8988;DHT22;4529;51.360;12.474;2023-02-28T21:37:35;-0.10;99.90
8988;DHT22;4529;51.360;12.474;2023-02-28T21:42:37;-0.20;99.90
8988;DHT22;4529;51.360;12.474;2023-02-28T21:47:41;-0.20;99.90
8988;DHT22;4529;51.360;12.474;2023-02-28T21:52:45;-0.10;99.90
8988;DHT22;4529;51.360;12.474;2023-02-28T21:57:50;-0.20;99.90
8988;DHT22;4529;51.360;12.474;2023-02-28T22:02:53;-0.20;99.90
8988;DHT22;4529;51.360;12.474;2023-02-28T22:08:05;-0.30;99.90
8988;DHT22;4529;51.360;12.474;2023-02-28T22:13:09;-0.40;99.90
8988;DHT22;4529;51.360;12.474;2023-02-28T22:18:12;-0.40;99.90
8988;DHT22;4529;51.360;12.474;2023-02-28T22:23:16;-0.40;99.90
8988;DHT22;4529;51.360;12.474;2023-02-28T22:28:23;-0.50;99.90
8988;DHT22;4529;51.360;12.474;2023-02-28T22:33:26;-0.50;99.90
8988;DHT22;4529;51.360;12.474;2023-02-28T22:38:29;-0.50;99.90
8988;DHT22;4529;51.360;12.474;2023-02-28T22:43:33;-0.50;99.90
8988;DHT22;4529;51.360;12.474;2023-02-28T22:48:36;-0.60;99.90
8988;DHT22;4529;51.360;12.474;2023-02-28T22:53:40;-0.70;99.90
8988;DHT22;4529;51.360;12.474;2023-02-28T22:58:47;-0.70;99.90
8988;DHT22;4529;51.360;12.474;2023-02-28T23:03:47;-0.70;99.90
8988;DHT22;4529;51.360;12.474;2023-02-28T23:08:51;-0.70;99.90
8988;DHT22;4529;51.360;12.474;2023-02-28T23:13:54;-0.70;99.90
8988;DHT22;4529;51.360;12.474;2023-02-28T23:18:58;-0.80;99.90
8988;DHT22;4529;51.360;12.474;2023-02-28T23:24:01;-0.80;99.90
8988;DHT22;4529;51.360;12.474;2023-02-28T23:29:04;-0.60;99.90
8988;DHT22;4529;51.360;12.474;2023-02-28T23:34:08;-0.30;99.90
8988;DHT22;4529;51.360;12.474;2023-02-28T23:39:11;0.00;99.90
8988;DHT22;4529;51.360;12.474;2023-02-28T23:44:15;0.20;99.90
8988;DHT22;4529;51.360;12.474;2023-02-28T23:49:19;0.40;99.90
8988;DHT22;4529;51.360;12.474;2023-02-28T23:54:23;0.50;99.90
8988;DHT22;4529;51.360;12.474;2023-02-28T23:59:27;0.60;99.90
